Pagina principale
METAR-TAF:

METAR-TAF

Aeroporti :

Fayetteville, Tennessee, Stati Uniti

latitudine: 35-03-35N, longitudine: 086-33-50W, altezza: 300 m

Osservazione

Il bollettino è stato emesso 29 minuti fa, alle 21:40 UTC
Vento 4 kt da nord-ovest
Temperature 13°C
Umidità 77%
Pressione 1021 hPa
Visibilità: 16.1 km
Poco nuvoloso ad un'altezza di 2200 ft

METAR: KFYM 162140Z AUTO 32004KT 10SM FEW022 13/09 A3016 RMK A01

Ora: 16:09 (22:09 UTC)


TAF: mancante

Osservazioni e previsioni meteorologiche di più di 4000 aeroporti (messaggi METAR e TAF).

Le stazioni disponibili sono rappresentate dai dischi gialli e rossi sulla carta.

Puntare il mouse per vedere il nome della stazione.

Clicca sopra per visualizzare le osservazioni e previsioni meteorologiche.

Per cambiare la mappa : fare clic sui pulsanti verdi con una croce nera per ingrandire, il pulsante verde con un trattino per diminuire, o sulla freccia verde per le mappe adiacenti.


METAR-TAF: